sensor_id;sensor_type;location;lat;lon;timestamp;P1;durP1;ratioP1;P2;durP2;ratioP2
76107;SDS011;64834;52.516;10.528;2024-02-04T00:01:13;5.97;;;2.67;;
76107;SDS011;64834;52.516;10.528;2024-02-04T00:03:39;5.20;;;2.30;;
76107;SDS011;64834;52.516;10.528;2024-02-04T00:06:04;3.55;;;1.30;;
76107;SDS011;64834;52.516;10.528;2024-02-04T00:08:29;6.05;;;1.48;;
76107;SDS011;64834;52.516;10.528;2024-02-04T00:10:55;3.40;;;1.35;;
76107;SDS011;64834;52.516;10.528;2024-02-04T00:13:20;2.55;;;1.65;;
76107;SDS011;64834;52.516;10.528;2024-02-04T00:15:46;4.72;;;1.33;;
76107;SDS011;64834;52.516;10.528;2024-02-04T00:18:11;5.55;;;1.67;;
76107;SDS011;64834;52.516;10.528;2024-02-04T00:20:36;3.67;;;1.20;;
76107;SDS011;64834;52.516;10.528;2024-02-04T00:23:02;2.90;;;1.00;;
76107;SDS011;64834;52.516;10.528;2024-02-04T00:25:27;3.92;;;1.00;;
76107;SDS011;64834;52.516;10.528;2024-02-04T00:27:54;4.57;;;1.27;;
76107;SDS011;64834;52.516;10.528;2024-02-04T00:30:19;2.22;;;0.90;;
76107;SDS011;64834;52.516;10.528;2024-02-04T00:32:44;4.35;;;1.65;;
76107;SDS011;64834;52.516;10.528;2024-02-04T00:35:10;2.30;;;1.27;;
76107;SDS011;64834;52.516;10.528;2024-02-04T00:37:35;2.80;;;1.42;;
76107;SDS011;64834;52.516;10.528;2024-02-04T00:40:00;8.93;;;2.13;;
76107;SDS011;64834;52.516;10.528;2024-02-04T00:42:26;3.85;;;1.58;;
76107;SDS011;64834;52.516;10.528;2024-02-04T00:44:51;8.20;;;3.63;;
76107;SDS011;64834;52.516;10.528;2024-02-04T00:47:16;4.28;;;2.80;;
76107;SDS011;64834;52.516;10.528;2024-02-04T00:49:42;7.75;;;2.10;;
76107;SDS011;64834;52.516;10.528;2024-02-04T00:52:07;4.82;;;2.03;;
76107;SDS011;64834;52.516;10.528;2024-02-04T00:54:32;4.55;;;2.22;;
76107;SDS011;64834;52.516;10.528;2024-02-04T00:56:58;5.43;;;2.33;;
76107;SDS011;64834;52.516;10.528;2024-02-04T00:59:24;6.68;;;2.05;;
76107;SDS011;64834;52.516;10.528;2024-02-04T01:01:49;4.70;;;2.08;;
76107;SDS011;64834;52.516;10.528;2024-02-04T01:04:15;4.80;;;2.25;;
76107;SDS011;64834;52.516;10.528;2024-02-04T01:06:40;6.70;;;2.13;;
76107;SDS011;64834;52.516;10.528;2024-02-04T01:09:05;4.38;;;1.67;;
76107;SDS011;64834;52.516;10.528;2024-02-04T01:11:31;5.32;;;1.92;;
76107;SDS011;64834;52.516;10.528;2024-02-04T01:13:57;6.13;;;1.98;;
76107;SDS011;64834;52.516;10.528;2024-02-04T01:16:22;5.15;;;2.20;;
76107;SDS011;64834;52.516;10.528;2024-02-04T01:18:48;5.82;;;2.28;;
76107;SDS011;64834;52.516;10.528;2024-02-04T01:21:13;22.75;;;4.40;;
76107;SDS011;64834;52.516;10.528;2024-02-04T01:23:38;4.05;;;1.52;;
76107;SDS011;64834;52.516;10.528;2024-02-04T01:26:03;5.38;;;1.85;;
76107;SDS011;64834;52.516;10.528;2024-02-04T01:28:29;9.35;;;3.75;;
76107;SDS011;64834;52.516;10.528;2024-02-04T01:30:54;7.22;;;2.90;;
76107;SDS011;64834;52.516;10.528;2024-02-04T01:33:20;9.02;;;2.70;;
76107;SDS011;64834;52.516;10.528;2024-02-04T01:35:45;5.10;;;2.70;;
76107;SDS011;64834;52.516;10.528;2024-02-04T01:38:10;7.97;;;4.07;;
76107;SDS011;64834;52.516;10.528;2024-02-04T01:40:36;9.98;;;3.50;;
76107;SDS011;64834;52.516;10.528;2024-02-04T01:43:01;5.38;;;2.67;;
76107;SDS011;64834;52.516;10.528;2024-02-04T01:45:26;6.35;;;3.22;;
76107;SDS011;64834;52.516;10.528;2024-02-04T01:47:52;6.35;;;3.40;;
76107;SDS011;64834;52.516;10.528;2024-02-04T01:50:19;7.40;;;2.80;;
76107;SDS011;64834;52.516;10.528;2024-02-04T01:52:44;9.32;;;4.40;;
76107;SDS011;64834;52.516;10.528;2024-02-04T01:55:10;8.30;;;3.38;;
76107;SDS011;64834;52.516;10.528;2024-02-04T01:57:36;5.03;;;2.47;;
76107;SDS011;64834;52.516;10.528;2024-02-04T02:00:02;8.85;;;3.60;;
76107;SDS011;64834;52.516;10.528;2024-02-04T02:02:29;7.72;;;3.65;;
76107;SDS011;64834;52.516;10.528;2024-02-04T02:04:55;6.22;;;3.33;;
76107;SDS011;64834;52.516;10.528;2024-02-04T02:07:21;7.45;;;3.75;;
76107;SDS011;64834;52.516;10.528;2024-02-04T02:09:49;9.77;;;4.50;;
76107;SDS011;64834;52.516;10.528;2024-02-04T02:12:16;6.00;;;3.08;;
76107;SDS011;64834;52.516;10.528;2024-02-04T02:14:48;8.80;;;4.43;;
76107;SDS011;64834;52.516;10.528;2024-02-04T02:17:20;10.10;;;4.35;;
76107;SDS011;64834;52.516;10.528;2024-02-04T02:20:00;9.13;;;3.55;;
76107;SDS011;64834;52.516;10.528;2024-02-04T02:22:45;8.13;;;4.22;;
76107;SDS011;64834;52.516;10.528;2024-02-04T02:25:13;9.35;;;4.43;;
76107;SDS011;64834;52.516;10.528;2024-02-04T02:27:48;9.25;;;3.92;;
76107;SDS011;64834;52.516;10.528;2024-02-04T02:30:15;6.65;;;3.35;;
76107;SDS011;64834;52.516;10.528;2024-02-04T02:32:41;11.48;;;4.28;;
76107;SDS011;64834;52.516;10.528;2024-02-04T02:35:07;9.70;;;3.78;;
76107;SDS011;64834;52.516;10.528;2024-02-04T02:37:36;7.22;;;3.15;;
76107;SDS011;64834;52.516;10.528;2024-02-04T02:40:30;7.63;;;4.32;;
76107;SDS011;64834;52.516;10.528;2024-02-04T02:43:00;9.15;;;3.47;;
76107;SDS011;64834;52.516;10.528;2024-02-04T02:45:27;6.50;;;3.15;;
76107;SDS011;64834;52.516;10.528;2024-02-04T02:47:54;5.82;;;3.28;;
76107;SDS011;64834;52.516;10.528;2024-02-04T02:50:20;8.48;;;3.47;;
76107;SDS011;64834;52.516;10.528;2024-02-04T02:52:45;5.78;;;3.10;;
76107;SDS011;64834;52.516;10.528;2024-02-04T02:55:11;5.65;;;2.60;;
76107;SDS011;64834;52.516;10.528;2024-02-04T02:57:36;4.70;;;1.85;;
76107;SDS011;64834;52.516;10.528;2024-02-04T03:00:02;8.65;;;3.47;;
76107;SDS011;64834;52.516;10.528;2024-02-04T03:02:28;9.60;;;3.83;;
76107;SDS011;64834;52.516;10.528;2024-02-04T03:04:54;7.13;;;3.85;;
76107;SDS011;64834;52.516;10.528;2024-02-04T03:07:19;9.65;;;2.85;;
76107;SDS011;64834;52.516;10.528;2024-02-04T03:09:45;7.47;;;3.25;;
76107;SDS011;64834;52.516;10.528;2024-02-04T03:12:10;8.48;;;4.63;;
76107;SDS011;64834;52.516;10.528;2024-02-04T03:14:35;11.13;;;4.18;;
76107;SDS011;64834;52.516;10.528;2024-02-04T03:17:01;7.90;;;5.22;;
76107;SDS011;64834;52.516;10.528;2024-02-04T03:19:26;12.73;;;5.32;;
76107;SDS011;64834;52.516;10.528;2024-02-04T03:21:51;10.82;;;4.28;;
76107;SDS011;64834;52.516;10.528;2024-02-04T03:24:17;9.07;;;4.70;;
76107;SDS011;64834;52.516;10.528;2024-02-04T03:26:42;8.82;;;5.18;;
76107;SDS011;64834;52.516;10.528;2024-02-04T03:29:07;10.13;;;4.88;;
76107;SDS011;64834;52.516;10.528;2024-02-04T03:31:32;8.65;;;4.63;;
76107;SDS011;64834;52.516;10.528;2024-02-04T03:33:58;8.27;;;4.35;;
76107;SDS011;64834;52.516;10.528;2024-02-04T03:36:23;9.73;;;5.07;;
76107;SDS011;64834;52.516;10.528;2024-02-04T03:38:49;15.82;;;5.55;;
76107;SDS011;64834;52.516;10.528;2024-02-04T03:41:15;10.93;;;5.07;;
76107;SDS011;64834;52.516;10.528;2024-02-04T03:43:41;11.07;;;5.57;;
76107;SDS011;64834;52.516;10.528;2024-02-04T03:46:06;10.90;;;4.60;;
76107;SDS011;64834;52.516;10.528;2024-02-04T03:48:31;12.52;;;5.65;;
76107;SDS011;64834;52.516;10.528;2024-02-04T03:50:58;12.40;;;4.25;;
76107;SDS011;64834;52.516;10.528;2024-02-04T03:53:24;10.02;;;4.35;;
76107;SDS011;64834;52.516;10.528;2024-02-04T03:55:50;8.38;;;4.57;;
76107;SDS011;64834;52.516;10.528;2024-02-04T03:58:15;9.20;;;4.78;;
76107;SDS011;64834;52.516;10.528;2024-02-04T04:00:41;8.40;;;4.68;;
76107;SDS011;64834;52.516;10.528;2024-02-04T04:03:06;9.43;;;4.28;;
76107;SDS011;64834;52.516;10.528;2024-02-04T04:05:31;14.05;;;4.68;;
76107;SDS011;64834;52.516;10.528;2024-02-04T04:07:57;5.38;;;2.90;;
76107;SDS011;64834;52.516;10.528;2024-02-04T04:10:22;8.23;;;4.82;;
76107;SDS011;64834;52.516;10.528;2024-02-04T04:12:47;6.88;;;3.25;;
76107;SDS011;64834;52.516;10.528;2024-02-04T04:15:13;4.22;;;2.20;;
76107;SDS011;64834;52.516;10.528;2024-02-04T04:17:38;5.80;;;3.13;;
76107;SDS011;64834;52.516;10.528;2024-02-04T04:20:04;8.13;;;4.40;;
76107;SDS011;64834;52.516;10.528;2024-02-04T04:22:32;7.45;;;3.42;;
76107;SDS011;64834;52.516;10.528;2024-02-04T04:24:57;8.05;;;3.33;;
76107;SDS011;64834;52.516;10.528;2024-02-04T04:27:22;8.57;;;3.53;;
76107;SDS011;64834;52.516;10.528;2024-02-04T04:29:48;5.07;;;2.47;;
76107;SDS011;64834;52.516;10.528;2024-02-04T04:32:13;4.53;;;2.00;;
76107;SDS011;64834;52.516;10.528;2024-02-04T04:34:38;4.53;;;2.33;;
76107;SDS011;64834;52.516;10.528;2024-02-04T04:37:04;5.03;;;2.42;;
76107;SDS011;64834;52.516;10.528;2024-02-04T04:39:29;10.23;;;3.83;;
76107;SDS011;64834;52.516;10.528;2024-02-04T04:41:54;3.13;;;1.52;;
76107;SDS011;64834;52.516;10.528;2024-02-04T04:44:20;8.60;;;2.72;;
76107;SDS011;64834;52.516;10.528;2024-02-04T04:46:45;6.78;;;2.17;;
76107;SDS011;64834;52.516;10.528;2024-02-04T04:49:10;5.82;;;2.92;;
76107;SDS011;64834;52.516;10.528;2024-02-04T04:51:36;6.65;;;2.28;;
76107;SDS011;64834;52.516;10.528;2024-02-04T04:54:01;4.30;;;1.70;;
76107;SDS011;64834;52.516;10.528;2024-02-04T04:56:26;9.48;;;2.97;;
76107;SDS011;64834;52.516;10.528;2024-02-04T04:58:52;7.47;;;2.65;;
76107;SDS011;64834;52.516;10.528;2024-02-04T05:01:17;6.05;;;2.95;;
76107;SDS011;64834;52.516;10.528;2024-02-04T05:03:42;8.25;;;2.78;;
76107;SDS011;64834;52.516;10.528;2024-02-04T05:06:09;5.80;;;2.45;;
76107;SDS011;64834;52.516;10.528;2024-02-04T05:08:34;7.45;;;3.28;;
76107;SDS011;64834;52.516;10.528;2024-02-04T05:10:59;6.45;;;3.13;;
76107;SDS011;64834;52.516;10.528;2024-02-04T05:13:25;7.72;;;2.70;;
76107;SDS011;64834;52.516;10.528;2024-02-04T05:15:50;6.95;;;3.03;;
76107;SDS011;64834;52.516;10.528;2024-02-04T05:18:15;6.07;;;2.83;;
76107;SDS011;64834;52.516;10.528;2024-02-04T05:20:41;9.43;;;2.78;;
76107;SDS011;64834;52.516;10.528;2024-02-04T05:23:08;4.60;;;1.95;;
76107;SDS011;64834;52.516;10.528;2024-02-04T05:25:33;2.72;;;1.48;;
76107;SDS011;64834;52.516;10.528;2024-02-04T05:27:59;6.45;;;1.98;;
76107;SDS011;64834;52.516;10.528;2024-02-04T05:30:24;4.13;;;1.50;;
76107;SDS011;64834;52.516;10.528;2024-02-04T05:32:49;5.93;;;1.70;;
76107;SDS011;64834;52.516;10.528;2024-02-04T05:35:15;8.73;;;2.05;;
76107;SDS011;64834;52.516;10.528;2024-02-04T05:37:40;5.90;;;1.88;;
76107;SDS011;64834;52.516;10.528;2024-02-04T05:40:06;2.65;;;1.38;;
76107;SDS011;64834;52.516;10.528;2024-02-04T05:42:31;5.78;;;1.70;;
76107;SDS011;64834;52.516;10.528;2024-02-04T05:44:57;4.10;;;1.50;;
76107;SDS011;64834;52.516;10.528;2024-02-04T05:47:23;3.45;;;1.02;;
76107;SDS011;64834;52.516;10.528;2024-02-04T05:49:48;6.28;;;1.65;;
76107;SDS011;64834;52.516;10.528;2024-02-04T05:52:14;5.97;;;1.52;;
76107;SDS011;64834;52.516;10.528;2024-02-04T05:54:40;2.38;;;1.05;;
76107;SDS011;64834;52.516;10.528;2024-02-04T05:57:05;3.92;;;1.70;;
76107;SDS011;64834;52.516;10.528;2024-02-04T05:59:32;4.05;;;1.27;;
76107;SDS011;64834;52.516;10.528;2024-02-04T06:01:57;3.42;;;0.70;;
76107;SDS011;64834;52.516;10.528;2024-02-04T06:04:23;3.40;;;1.25;;
76107;SDS011;64834;52.516;10.528;2024-02-04T06:06:48;4.80;;;1.10;;
76107;SDS011;64834;52.516;10.528;2024-02-04T06:09:13;3.05;;;1.00;;
76107;SDS011;64834;52.516;10.528;2024-02-04T06:11:39;6.97;;;1.95;;
76107;SDS011;64834;52.516;10.528;2024-02-04T06:14:04;5.47;;;1.52;;
76107;SDS011;64834;52.516;10.528;2024-02-04T06:16:29;6.45;;;1.60;;
76107;SDS011;64834;52.516;10.528;2024-02-04T06:18:55;1.73;;;1.15;;
76107;SDS011;64834;52.516;10.528;2024-02-04T06:21:22;3.95;;;1.55;;
76107;SDS011;64834;52.516;10.528;2024-02-04T06:23:47;8.23;;;1.75;;
76107;SDS011;64834;52.516;10.528;2024-02-04T06:26:12;1.23;;;0.70;;
76107;SDS011;64834;52.516;10.528;2024-02-04T06:28:38;4.20;;;1.10;;
76107;SDS011;64834;52.516;10.528;2024-02-04T06:31:03;1.38;;;0.63;;
76107;SDS011;64834;52.516;10.528;2024-02-04T06:33:28;3.78;;;0.77;;
76107;SDS011;64834;52.516;10.528;2024-02-04T06:35:54;6.15;;;1.50;;
76107;SDS011;64834;52.516;10.528;2024-02-04T06:38:19;2.33;;;1.20;;
76107;SDS011;64834;52.516;10.528;2024-02-04T06:40:44;5.07;;;1.02;;
76107;SDS011;64834;52.516;10.528;2024-02-04T06:43:10;4.18;;;1.05;;
76107;SDS011;64834;52.516;10.528;2024-02-04T06:45:35;3.70;;;1.00;;
76107;SDS011;64834;52.516;10.528;2024-02-04T06:48:00;4.05;;;1.23;;
76107;SDS011;64834;52.516;10.528;2024-02-04T06:50:26;3.03;;;0.80;;
76107;SDS011;64834;52.516;10.528;2024-02-04T06:52:51;1.48;;;0.68;;
76107;SDS011;64834;52.516;10.528;2024-02-04T06:55:16;4.20;;;0.93;;
76107;SDS011;64834;52.516;10.528;2024-02-04T06:57:41;3.55;;;0.93;;
76107;SDS011;64834;52.516;10.528;2024-02-04T07:00:07;2.22;;;0.80;;
76107;SDS011;64834;52.516;10.528;2024-02-04T07:02:33;1.70;;;0.73;;
76107;SDS011;64834;52.516;10.528;2024-02-04T07:04:59;2.03;;;0.93;;
76107;SDS011;64834;52.516;10.528;2024-02-04T07:07:24;2.72;;;1.02;;
76107;SDS011;64834;52.516;10.528;2024-02-04T07:09:49;5.18;;;1.08;;
76107;SDS011;64834;52.516;10.528;2024-02-04T07:12:15;3.88;;;1.30;;
76107;SDS011;64834;52.516;10.528;2024-02-04T07:14:40;1.90;;;0.98;;
76107;SDS011;64834;52.516;10.528;2024-02-04T07:17:05;19.35;;;2.47;;
76107;SDS011;64834;52.516;10.528;2024-02-04T07:19:31;5.00;;;1.20;;
76107;SDS011;64834;52.516;10.528;2024-02-04T07:21:56;2.38;;;0.70;;
76107;SDS011;64834;52.516;10.528;2024-02-04T07:24:21;4.57;;;1.13;;
76107;SDS011;64834;52.516;10.528;2024-02-04T07:26:47;3.78;;;1.27;;
76107;SDS011;64834;52.516;10.528;2024-02-04T07:29:12;4.20;;;1.42;;
76107;SDS011;64834;52.516;10.528;2024-02-04T07:31:38;6.70;;;1.98;;
76107;SDS011;64834;52.516;10.528;2024-02-04T07:34:03;7.15;;;1.98;;
76107;SDS011;64834;52.516;10.528;2024-02-04T07:36:30;4.43;;;2.15;;
76107;SDS011;64834;52.516;10.528;2024-02-04T07:38:55;9.95;;;2.63;;
76107;SDS011;64834;52.516;10.528;2024-02-04T07:41:21;9.32;;;3.00;;
76107;SDS011;64834;52.516;10.528;2024-02-04T07:43:46;3.33;;;2.05;;
76107;SDS011;64834;52.516;10.528;2024-02-04T07:46:13;5.82;;;2.45;;
76107;SDS011;64834;52.516;10.528;2024-02-04T07:48:38;5.18;;;2.50;;
76107;SDS011;64834;52.516;10.528;2024-02-04T07:51:04;3.42;;;1.63;;
76107;SDS011;64834;52.516;10.528;2024-02-04T07:53:29;3.05;;;1.67;;
76107;SDS011;64834;52.516;10.528;2024-02-04T07:55:54;6.47;;;2.30;;
76107;SDS011;64834;52.516;10.528;2024-02-04T07:58:21;6.15;;;2.70;;
76107;SDS011;64834;52.516;10.528;2024-02-04T08:00:46;5.90;;;2.13;;
76107;SDS011;64834;52.516;10.528;2024-02-04T08:03:11;4.38;;;2.58;;
76107;SDS011;64834;52.516;10.528;2024-02-04T08:05:37;4.20;;;1.73;;
76107;SDS011;64834;52.516;10.528;2024-02-04T08:08:02;6.45;;;1.80;;
76107;SDS011;64834;52.516;10.528;2024-02-04T08:10:27;4.95;;;1.60;;
76107;SDS011;64834;52.516;10.528;2024-02-04T08:12:53;6.35;;;1.92;;
76107;SDS011;64834;52.516;10.528;2024-02-04T08:15:19;3.67;;;1.40;;
76107;SDS011;64834;52.516;10.528;2024-02-04T08:17:45;3.78;;;1.73;;
76107;SDS011;64834;52.516;10.528;2024-02-04T08:20:10;5.60;;;2.00;;
76107;SDS011;64834;52.516;10.528;2024-02-04T08:22:36;8.68;;;1.63;;
76107;SDS011;64834;52.516;10.528;2024-02-04T08:25:02;4.85;;;1.63;;
76107;SDS011;64834;52.516;10.528;2024-02-04T08:27:28;4.03;;;1.95;;
76107;SDS011;64834;52.516;10.528;2024-02-04T08:29:53;5.15;;;1.20;;
76107;SDS011;64834;52.516;10.528;2024-02-04T08:32:18;3.05;;;1.38;;
76107;SDS011;64834;52.516;10.528;2024-02-04T08:34:44;3.75;;;1.38;;
76107;SDS011;64834;52.516;10.528;2024-02-04T08:37:09;2.90;;;1.20;;
76107;SDS011;64834;52.516;10.528;2024-02-04T08:39:34;3.13;;;0.93;;
76107;SDS011;64834;52.516;10.528;2024-02-04T08:42:00;6.85;;;1.27;;
76107;SDS011;64834;52.516;10.528;2024-02-04T08:44:25;2.95;;;0.98;;
76107;SDS011;64834;52.516;10.528;2024-02-04T08:46:50;2.63;;;1.00;;
76107;SDS011;64834;52.516;10.528;2024-02-04T08:49:16;3.53;;;1.58;;
76107;SDS011;64834;52.516;10.528;2024-02-04T08:51:41;1.42;;;0.77;;
76107;SDS011;64834;52.516;10.528;2024-02-04T08:54:06;7.25;;;2.08;;
76107;SDS011;64834;52.516;10.528;2024-02-04T08:56:32;3.05;;;1.65;;
76107;SDS011;64834;52.516;10.528;2024-02-04T08:58:57;6.05;;;1.17;;
76107;SDS011;64834;52.516;10.528;2024-02-04T09:01:24;4.70;;;1.67;;
76107;SDS011;64834;52.516;10.528;2024-02-04T09:03:50;4.65;;;2.08;;
76107;SDS011;64834;52.516;10.528;2024-02-04T09:06:15;2.60;;;1.00;;
76107;SDS011;64834;52.516;10.528;2024-02-04T09:08:40;4.50;;;1.45;;
76107;SDS011;64834;52.516;10.528;2024-02-04T09:11:06;3.97;;;1.15;;
76107;SDS011;64834;52.516;10.528;2024-02-04T09:13:31;3.83;;;1.15;;
76107;SDS011;64834;52.516;10.528;2024-02-04T09:15:56;2.10;;;1.13;;
76107;SDS011;64834;52.516;10.528;2024-02-04T09:18:22;3.60;;;1.08;;
76107;SDS011;64834;52.516;10.528;2024-02-04T09:20:47;3.30;;;1.10;;
76107;SDS011;64834;52.516;10.528;2024-02-04T09:23:13;5.80;;;1.27;;
76107;SDS011;64834;52.516;10.528;2024-02-04T09:25:38;3.35;;;0.77;;
76107;SDS011;64834;52.516;10.528;2024-02-04T09:28:03;3.72;;;0.95;;
76107;SDS011;64834;52.516;10.528;2024-02-04T09:30:29;2.50;;;1.20;;
76107;SDS011;64834;52.516;10.528;2024-02-04T09:32:54;7.97;;;1.63;;
76107;SDS011;64834;52.516;10.528;2024-02-04T09:35:19;3.75;;;0.98;;
76107;SDS011;64834;52.516;10.528;2024-02-04T09:37:45;8.18;;;1.98;;
76107;SDS011;64834;52.516;10.528;2024-02-04T09:40:10;3.40;;;1.08;;
76107;SDS011;64834;52.516;10.528;2024-02-04T09:42:37;6.93;;;1.67;;
76107;SDS011;64834;52.516;10.528;2024-02-04T09:45:02;8.90;;;1.48;;
76107;SDS011;64834;52.516;10.528;2024-02-04T09:47:28;2.00;;;0.70;;
76107;SDS011;64834;52.516;10.528;2024-02-04T09:49:54;6.80;;;1.77;;
76107;SDS011;64834;52.516;10.528;2024-02-04T09:52:21;2.13;;;0.70;;
76107;SDS011;64834;52.516;10.528;2024-02-04T09:54:56;4.88;;;1.10;;
76107;SDS011;64834;52.516;10.528;2024-02-04T09:57:25;5.47;;;1.00;;
76107;SDS011;64834;52.516;10.528;2024-02-04T09:59:51;5.38;;;1.05;;
76107;SDS011;64834;52.516;10.528;2024-02-04T10:02:16;12.25;;;1.23;;
76107;SDS011;64834;52.516;10.528;2024-02-04T10:04:42;2.75;;;1.20;;
76107;SDS011;64834;52.516;10.528;2024-02-04T10:07:07;3.38;;;0.88;;
76107;SDS011;64834;52.516;10.528;2024-02-04T10:09:33;2.47;;;0.80;;
76107;SDS011;64834;52.516;10.528;2024-02-04T10:11:58;6.47;;;0.98;;
76107;SDS011;64834;52.516;10.528;2024-02-04T10:14:24;1.85;;;0.88;;
76107;SDS011;64834;52.516;10.528;2024-02-04T10:16:49;4.90;;;0.95;;
76107;SDS011;64834;52.516;10.528;2024-02-04T10:19:15;1.63;;;0.73;;
76107;SDS011;64834;52.516;10.528;2024-02-04T10:21:40;3.88;;;0.93;;
76107;SDS011;64834;52.516;10.528;2024-02-04T10:24:05;2.88;;;0.65;;
76107;SDS011;64834;52.516;10.528;2024-02-04T10:26:31;4.97;;;1.13;;
76107;SDS011;64834;52.516;10.528;2024-02-04T10:28:59;4.00;;;1.13;;
76107;SDS011;64834;52.516;10.528;2024-02-04T10:31:25;3.22;;;0.90;;
76107;SDS011;64834;52.516;10.528;2024-02-04T10:33:51;1.73;;;0.77;;
76107;SDS011;64834;52.516;10.528;2024-02-04T10:36:17;5.55;;;1.15;;
76107;SDS011;64834;52.516;10.528;2024-02-04T10:38:42;4.15;;;1.05;;
76107;SDS011;64834;52.516;10.528;2024-02-04T10:41:07;2.70;;;0.82;;
76107;SDS011;64834;52.516;10.528;2024-02-04T10:43:42;6.55;;;1.52;;
76107;SDS011;64834;52.516;10.528;2024-02-04T10:46:09;4.13;;;1.92;;
76107;SDS011;64834;52.516;10.528;2024-02-04T10:48:37;3.78;;;0.98;;
76107;SDS011;64834;52.516;10.528;2024-02-04T10:51:11;6.00;;;0.80;;
76107;SDS011;64834;52.516;10.528;2024-02-04T10:53:42;7.75;;;1.48;;
76107;SDS011;64834;52.516;10.528;2024-02-04T10:56:13;1.75;;;1.13;;
76107;SDS011;64834;52.516;10.528;2024-02-04T10:58:43;6.00;;;1.35;;
76107;SDS011;64834;52.516;10.528;2024-02-04T11:01:09;4.20;;;1.02;;
76107;SDS011;64834;52.516;10.528;2024-02-04T11:03:35;2.50;;;0.75;;
76107;SDS011;64834;52.516;10.528;2024-02-04T11:06:03;5.72;;;1.30;;
76107;SDS011;64834;52.516;10.528;2024-02-04T11:08:29;4.43;;;1.38;;
76107;SDS011;64834;52.516;10.528;2024-02-04T11:10:54;3.30;;;1.17;;
76107;SDS011;64834;52.516;10.528;2024-02-04T11:15:50;4.97;;;1.55;;
76107;SDS011;64834;52.516;10.528;2024-02-04T11:18:42;3.72;;;0.93;;
76107;SDS011;64834;52.516;10.528;2024-02-04T11:27:00;2.15;;;0.80;;
76107;SDS011;64834;52.516;10.528;2024-02-04T11:29:26;3.13;;;1.02;;
76107;SDS011;64834;52.516;10.528;2024-02-04T11:31:52;3.17;;;1.23;;
76107;SDS011;64834;52.516;10.528;2024-02-04T11:34:17;7.20;;;1.02;;
76107;SDS011;64834;52.516;10.528;2024-02-04T11:36:43;10.15;;;1.50;;
76107;SDS011;64834;52.516;10.528;2024-02-04T11:39:12;4.00;;;1.42;;
76107;SDS011;64834;52.516;10.528;2024-02-04T11:41:46;7.57;;;2.03;;
76107;SDS011;64834;52.516;10.528;2024-02-04T11:44:12;8.27;;;1.95;;
76107;SDS011;64834;52.516;10.528;2024-02-04T11:46:37;3.47;;;1.02;;
76107;SDS011;64834;52.516;10.528;2024-02-04T11:49:03;4.40;;;1.10;;
76107;SDS011;64834;52.516;10.528;2024-02-04T11:51:28;4.75;;;1.20;;
76107;SDS011;64834;52.516;10.528;2024-02-04T11:53:55;1.50;;;0.68;;
76107;SDS011;64834;52.516;10.528;2024-02-04T11:56:21;1.58;;;1.30;;
76107;SDS011;64834;52.516;10.528;2024-02-04T11:58:49;6.50;;;1.15;;
76107;SDS011;64834;52.516;10.528;2024-02-04T12:01:14;6.32;;;1.75;;
76107;SDS011;64834;52.516;10.528;2024-02-04T12:03:40;4.50;;;1.23;;
76107;SDS011;64834;52.516;10.528;2024-02-04T12:06:06;5.25;;;1.08;;
76107;SDS011;64834;52.516;10.528;2024-02-04T12:08:32;4.97;;;1.35;;
76107;SDS011;64834;52.516;10.528;2024-02-04T12:10:58;5.55;;;1.30;;
76107;SDS011;64834;52.516;10.528;2024-02-04T12:13:24;4.43;;;0.80;;
76107;SDS011;64834;52.516;10.528;2024-02-04T12:15:50;7.03;;;1.58;;
76107;SDS011;64834;52.516;10.528;2024-02-04T12:18:15;5.97;;;1.33;;
76107;SDS011;64834;52.516;10.528;2024-02-04T12:20:45;4.65;;;1.10;;
76107;SDS011;64834;52.516;10.528;2024-02-04T12:23:11;2.33;;;1.20;;
76107;SDS011;64834;52.516;10.528;2024-02-04T12:25:37;3.88;;;0.80;;
76107;SDS011;64834;52.516;10.528;2024-02-04T12:28:03;2.72;;;0.93;;
76107;SDS011;64834;52.516;10.528;2024-02-04T12:30:29;6.57;;;1.30;;
76107;SDS011;64834;52.516;10.528;2024-02-04T12:32:58;5.22;;;1.13;;
76107;SDS011;64834;52.516;10.528;2024-02-04T12:35:27;3.72;;;1.25;;
76107;SDS011;64834;52.516;10.528;2024-02-04T12:37:53;5.10;;;1.05;;
76107;SDS011;64834;52.516;10.528;2024-02-04T12:40:23;3.30;;;1.00;;
76107;SDS011;64834;52.516;10.528;2024-02-04T12:42:52;4.47;;;1.38;;
76107;SDS011;64834;52.516;10.528;2024-02-04T12:45:27;5.35;;;1.38;;
76107;SDS011;64834;52.516;10.528;2024-02-04T12:47:54;1.85;;;0.68;;
76107;SDS011;64834;52.516;10.528;2024-02-04T12:50:20;9.55;;;1.15;;
76107;SDS011;64834;52.516;10.528;2024-02-04T12:52:46;2.10;;;1.15;;
76107;SDS011;64834;52.516;10.528;2024-02-04T12:55:19;3.05;;;1.25;;
76107;SDS011;64834;52.516;10.528;2024-02-04T12:57:47;2.95;;;1.45;;
76107;SDS011;64834;52.516;10.528;2024-02-04T13:00:12;1.25;;;0.75;;
76107;SDS011;64834;52.516;10.528;2024-02-04T13:02:38;2.92;;;1.35;;
76107;SDS011;64834;52.516;10.528;2024-02-04T13:05:04;6.53;;;1.27;;
76107;SDS011;64834;52.516;10.528;2024-02-04T13:07:30;5.05;;;1.25;;
76107;SDS011;64834;52.516;10.528;2024-02-04T13:09:58;4.18;;;1.42;;
76107;SDS011;64834;52.516;10.528;2024-02-04T13:12:27;7.80;;;1.63;;
76107;SDS011;64834;52.516;10.528;2024-02-04T13:14:52;4.32;;;1.00;;
76107;SDS011;64834;52.516;10.528;2024-02-04T13:17:18;3.58;;;1.02;;
76107;SDS011;64834;52.516;10.528;2024-02-04T13:19:43;7.65;;;1.48;;
76107;SDS011;64834;52.516;10.528;2024-02-04T13:22:09;4.97;;;1.88;;
76107;SDS011;64834;52.516;10.528;2024-02-04T13:24:35;3.95;;;0.88;;
76107;SDS011;64834;52.516;10.528;2024-02-04T13:27:00;3.60;;;1.25;;
76107;SDS011;64834;52.516;10.528;2024-02-04T13:29:26;6.35;;;1.45;;
76107;SDS011;64834;52.516;10.528;2024-02-04T13:31:52;2.33;;;1.00;;
76107;SDS011;64834;52.516;10.528;2024-02-04T13:34:17;1.98;;;1.25;;
76107;SDS011;64834;52.516;10.528;2024-02-04T13:36:43;2.53;;;0.98;;
76107;SDS011;64834;52.516;10.528;2024-02-04T13:39:09;6.15;;;1.30;;
76107;SDS011;64834;52.516;10.528;2024-02-04T13:41:34;4.10;;;0.85;;
76107;SDS011;64834;52.516;10.528;2024-02-04T13:44:00;4.05;;;1.13;;
76107;SDS011;64834;52.516;10.528;2024-02-04T13:46:26;3.35;;;1.23;;
76107;SDS011;64834;52.516;10.528;2024-02-04T13:48:51;2.00;;;0.93;;
76107;SDS011;64834;52.516;10.528;2024-02-04T13:51:16;6.65;;;1.25;;
76107;SDS011;64834;52.516;10.528;2024-02-04T13:53:42;6.43;;;0.95;;
76107;SDS011;64834;52.516;10.528;2024-02-04T13:56:07;4.80;;;1.63;;
76107;SDS011;64834;52.516;10.528;2024-02-04T13:58:32;1.63;;;0.73;;
76107;SDS011;64834;52.516;10.528;2024-02-04T14:00:58;4.47;;;1.20;;
76107;SDS011;64834;52.516;10.528;2024-02-04T14:03:24;7.03;;;1.00;;
76107;SDS011;64834;52.516;10.528;2024-02-04T14:05:49;3.30;;;1.17;;
76107;SDS011;64834;52.516;10.528;2024-02-04T14:08:15;3.75;;;0.80;;
76107;SDS011;64834;52.516;10.528;2024-02-04T14:10:40;4.60;;;0.93;;
76107;SDS011;64834;52.516;10.528;2024-02-04T14:13:06;3.90;;;0.95;;
76107;SDS011;64834;52.516;10.528;2024-02-04T14:15:31;1.85;;;0.85;;
76107;SDS011;64834;52.516;10.528;2024-02-04T14:17:56;2.28;;;0.77;;
76107;SDS011;64834;52.516;10.528;2024-02-04T14:20:22;1.20;;;0.82;;
76107;SDS011;64834;52.516;10.528;2024-02-04T14:22:47;2.13;;;1.00;;
76107;SDS011;64834;52.516;10.528;2024-02-04T14:25:13;1.77;;;0.68;;
76107;SDS011;64834;52.516;10.528;2024-02-04T14:27:38;3.45;;;1.15;;
76107;SDS011;64834;52.516;10.528;2024-02-04T14:30:04;6.03;;;0.90;;
76107;SDS011;64834;52.516;10.528;2024-02-04T14:32:31;1.65;;;0.90;;
76107;SDS011;64834;52.516;10.528;2024-02-04T14:34:57;2.40;;;0.77;;